createdAt,value
2023-03-04T00:01:21.704Z,5.56
2023-03-04T00:03:49.565Z,5.83
2023-03-04T00:06:18.785Z,5.62
2023-03-04T00:08:46.612Z,5.69
2023-03-04T00:11:14.487Z,5.81
2023-03-04T00:13:42.351Z,5.72
2023-03-04T00:16:10.209Z,5.61
2023-03-04T00:18:38.059Z,5.49
2023-03-04T00:21:06.353Z,5.62
2023-03-04T00:23:35.545Z,5.58
2023-03-04T00:26:03.415Z,5.48
2023-03-04T00:28:31.140Z,5.51
2023-03-04T00:30:58.975Z,5.64
2023-03-04T00:33:26.748Z,5.68
2023-03-04T00:35:54.519Z,5.64
2023-03-04T00:38:22.295Z,6.18
2023-03-04T00:40:51.722Z,5.98
2023-03-04T00:43:19.916Z,5.80
2023-03-04T00:45:47.841Z,5.61
2023-03-04T00:48:16.429Z,5.87
2023-03-04T00:50:44.933Z,5.79
2023-03-04T00:53:12.843Z,5.64
2023-03-04T00:55:40.641Z,5.67
2023-03-04T00:58:10.016Z,5.89
2023-03-04T01:00:37.880Z,5.75
2023-03-04T01:03:05.696Z,5.85
2023-03-04T01:05:35.879Z,5.84
2023-03-04T01:08:03.741Z,5.67
2023-03-04T01:10:31.664Z,5.73
2023-03-04T01:12:59.935Z,5.65
2023-03-04T01:15:29.700Z,6.08
2023-03-04T01:17:58.094Z,5.78
2023-03-04T01:20:26.348Z,5.81
2023-03-04T01:22:54.146Z,5.73
2023-03-04T01:25:22.118Z,5.83
2023-03-04T01:27:50.012Z,5.92
2023-03-04T01:30:21.111Z,6.04
2023-03-04T01:32:50.413Z,6.09
2023-03-04T01:35:18.317Z,6.17
2023-03-04T01:37:46.099Z,6.09
2023-03-04T01:40:15.079Z,6.28
2023-03-04T01:42:43.042Z,5.96
2023-03-04T01:45:15.488Z,5.96
2023-03-04T01:47:48.448Z,5.92
2023-03-04T01:50:24.718Z,6.04
2023-03-04T01:52:52.600Z,5.58
2023-03-04T01:55:23.407Z,5.66
2023-03-04T01:57:53.282Z,5.53
2023-03-04T02:00:28.350Z,5.54
2023-03-04T02:03:00.168Z,5.55
2023-03-04T02:05:30.476Z,5.64
2023-03-04T02:08:01.908Z,5.83
2023-03-04T02:10:29.679Z,5.95
2023-03-04T02:12:57.721Z,5.83
2023-03-04T02:15:25.894Z,5.89
2023-03-04T02:17:53.725Z,6.09
2023-03-04T02:20:35.554Z,5.97
2023-03-04T02:23:10.744Z,5.92
2023-03-04T02:25:44.562Z,5.91
2023-03-04T02:28:13.929Z,5.83
2023-03-04T02:30:42.587Z,6.01
2023-03-04T02:33:16.855Z,5.96
2023-03-04T02:35:44.876Z,5.59
2023-03-04T02:38:13.522Z,5.68
2023-03-04T02:40:45.019Z,5.97
2023-03-04T02:43:14.317Z,6.01
2023-03-04T02:45:44.976Z,5.70
2023-03-04T02:48:14.526Z,6.05
2023-03-04T02:50:47.328Z,6.12
2023-03-04T02:53:15.349Z,6.05
2023-03-04T02:55:43.805Z,5.70
2023-03-04T02:58:14.978Z,5.64
2023-03-04T03:00:43.702Z,5.66
2023-03-04T03:03:12.421Z,5.96
2023-03-04T03:05:40.908Z,5.80
2023-03-04T03:08:09.586Z,5.78
2023-03-04T03:10:37.696Z,5.83
2023-03-04T03:13:07.745Z,5.80
2023-03-04T03:15:42.068Z,5.54
2023-03-04T03:18:10.922Z,5.59
2023-03-04T03:20:39.076Z,5.54
2023-03-04T03:23:06.953Z,5.38
2023-03-04T03:25:34.839Z,5.63
2023-03-04T03:28:02.675Z,5.71
2023-03-04T03:30:30.523Z,5.51
2023-03-04T03:32:59.734Z,5.93
2023-03-04T03:35:28.393Z,5.62
2023-03-04T03:37:56.296Z,5.66
2023-03-04T03:40:24.181Z,5.73
2023-03-04T03:42:51.977Z,5.84
2023-03-04T03:45:19.814Z,5.64
2023-03-04T03:47:47.572Z,5.66
2023-03-04T03:50:17.414Z,5.93
2023-03-04T03:52:45.260Z,5.70
2023-03-04T03:55:14.235Z,5.83
2023-03-04T03:57:42.292Z,5.61
2023-03-04T04:00:11.902Z,5.77
2023-03-04T04:02:43.196Z,5.75
2023-03-04T04:05:11.848Z,6.05
2023-03-04T04:07:41.778Z,5.77
2023-03-04T04:10:11.700Z,5.79
2023-03-04T04:12:39.812Z,5.86
2023-03-04T04:15:09.484Z,5.62
2023-03-04T04:17:37.311Z,5.69
2023-03-04T04:20:05.973Z,5.64
2023-03-04T04:22:33.754Z,5.83
2023-03-04T04:25:03.262Z,5.95
2023-03-04T04:27:31.067Z,5.64
2023-03-04T04:29:59.379Z,5.97
2023-03-04T04:32:27.385Z,5.76
2023-03-04T04:34:55.247Z,5.58
2023-03-04T04:37:23.104Z,5.59
2023-03-04T04:39:51.838Z,5.58
2023-03-04T04:42:21.210Z,5.38
2023-03-04T04:44:49.004Z,5.41
2023-03-04T04:47:16.873Z,5.39
2023-03-04T04:49:44.949Z,5.61
2023-03-04T04:52:12.877Z,5.64
2023-03-04T04:54:41.417Z,5.69
2023-03-04T04:57:09.249Z,5.50
2023-03-04T04:59:38.402Z,6.02
2023-03-04T05:02:06.167Z,5.72
2023-03-04T05:04:33.918Z,5.44
2023-03-04T05:07:02.108Z,5.30
2023-03-04T05:09:29.923Z,5.55
2023-03-04T05:11:57.787Z,5.58
2023-03-04T05:14:25.645Z,5.58
2023-03-04T05:16:54.942Z,5.88
2023-03-04T05:19:22.784Z,5.82
2023-03-04T05:21:50.609Z,5.88
2023-03-04T05:24:18.948Z,5.88
2023-03-04T05:26:46.891Z,5.90
2023-03-04T05:29:14.959Z,5.61
2023-03-04T05:31:42.692Z,5.36
2023-03-04T05:34:12.155Z,5.57
2023-03-04T05:36:39.900Z,5.92
2023-03-04T05:39:07.757Z,5.93
2023-03-04T05:41:35.643Z,5.54
2023-03-04T05:44:03.612Z,5.63
2023-03-04T05:46:33.543Z,5.55
2023-03-04T05:49:01.753Z,5.66
2023-03-04T05:51:30.964Z,5.81
2023-03-04T05:53:58.896Z,5.50
2023-03-04T05:56:26.860Z,5.46
2023-03-04T05:58:58.110Z,5.74
2023-03-04T06:01:26.177Z,5.79
2023-03-04T06:03:54.131Z,5.69
2023-03-04T06:06:22.095Z,5.66
2023-03-04T06:08:51.341Z,5.77
2023-03-04T06:11:19.335Z,5.81
2023-03-04T06:13:47.348Z,5.75
2023-03-04T06:16:15.279Z,5.78
2023-03-04T06:18:43.034Z,5.84
2023-03-04T06:21:10.782Z,5.79
2023-03-04T06:23:38.670Z,5.70
2023-03-04T06:26:10.075Z,5.57
2023-03-04T06:28:37.967Z,5.86
2023-03-04T06:31:06.675Z,5.83
2023-03-04T06:33:34.839Z,5.98
2023-03-04T06:36:02.965Z,5.94
2023-03-04T06:38:30.840Z,5.77
2023-03-04T06:40:58.668Z,6.09
2023-03-04T06:43:27.968Z,5.73
2023-03-04T06:45:55.838Z,5.91
2023-03-04T06:48:23.816Z,5.90
2023-03-04T06:50:51.610Z,5.85
2023-03-04T06:53:19.461Z,5.70
2023-03-04T06:55:48.063Z,5.51
2023-03-04T06:58:17.452Z,5.67
2023-03-04T07:00:46.857Z,5.42
2023-03-04T07:03:14.861Z,5.64
2023-03-04T07:05:44.224Z,5.79
2023-03-04T07:08:12.695Z,5.60
2023-03-04T07:10:40.892Z,5.94
2023-03-04T07:13:08.941Z,5.61
2023-03-04T07:15:37.335Z,5.73
2023-03-04T07:18:06.612Z,5.93
2023-03-04T07:20:34.518Z,6.00
2023-03-04T07:23:02.302Z,5.84
2023-03-04T07:25:30.342Z,5.99
2023-03-04T07:27:58.034Z,6.04
2023-03-04T07:30:25.839Z,5.71
2023-03-04T07:32:54.364Z,5.84
2023-03-04T07:35:23.675Z,5.58
2023-03-04T07:37:51.612Z,5.42
2023-03-04T07:40:19.888Z,5.66
2023-03-04T07:42:51.180Z,5.44
2023-03-04T07:45:19.231Z,5.47
2023-03-04T07:47:47.459Z,5.76
2023-03-04T07:50:17.901Z,5.68
2023-03-04T07:52:50.947Z,6.04
2023-03-04T07:55:19.353Z,5.67
2023-03-04T07:57:49.178Z,5.67
2023-03-04T08:00:18.622Z,5.69
2023-03-04T08:02:46.589Z,5.68
2023-03-04T08:05:14.616Z,6.04
2023-03-04T08:07:42.696Z,6.11
2023-03-04T08:10:13.184Z,6.06
2023-03-04T08:12:41.047Z,5.79
2023-03-04T08:15:10.233Z,6.02
2023-03-04T08:17:38.182Z,6.15
2023-03-04T08:20:06.958Z,6.08
2023-03-04T08:22:34.809Z,5.91
2023-03-04T08:25:02.629Z,6.01
2023-03-04T08:27:32.088Z,6.08
2023-03-04T08:29:59.883Z,6.25
2023-03-04T08:32:28.338Z,6.02
2023-03-04T08:34:57.051Z,6.03
2023-03-04T08:37:25.105Z,5.95
2023-03-04T08:39:53.039Z,5.83
2023-03-04T08:42:21.112Z,6.21
2023-03-04T08:44:50.436Z,6.13
2023-03-04T08:47:18.417Z,5.95
2023-03-04T08:49:46.554Z,5.89
2023-03-04T08:52:14.413Z,6.01
2023-03-04T08:54:42.235Z,5.55
2023-03-04T08:57:10.264Z,5.64
2023-03-04T08:59:38.646Z,5.55
2023-03-04T09:02:08.228Z,5.62
2023-03-04T09:04:36.663Z,5.73
2023-03-04T09:07:04.802Z,5.75
2023-03-04T09:09:32.825Z,5.69
2023-03-04T09:12:00.807Z,5.90
2023-03-04T09:14:28.700Z,6.20
2023-03-04T09:16:56.523Z,6.40
2023-03-04T09:19:27.708Z,6.24
2023-03-04T09:21:56.726Z,6.02
2023-03-04T09:24:24.579Z,6.11
2023-03-04T09:26:52.782Z,6.07
2023-03-04T09:29:20.868Z,6.13
2023-03-04T09:31:48.803Z,6.11
2023-03-04T09:34:17.173Z,6.44
2023-03-04T09:36:46.469Z,6.75
2023-03-04T09:39:14.349Z,6.43
2023-03-04T09:41:44.764Z,6.36
2023-03-04T09:44:24.438Z,6.60
2023-03-04T09:46:54.112Z,6.42
2023-03-04T09:49:23.305Z,6.19
2023-03-04T09:52:02.132Z,6.30
2023-03-04T09:54:49.382Z,6.80
2023-03-04T09:57:25.115Z,6.50
2023-03-04T10:00:06.031Z,6.55
2023-03-04T10:02:47.158Z,6.57
2023-03-04T10:05:19.773Z,6.57
2023-03-04T10:07:54.652Z,6.51
2023-03-04T10:10:27.649Z,6.52
2023-03-04T10:12:58.521Z,6.86
2023-03-04T10:15:35.250Z,6.59
2023-03-04T10:18:13.583Z,6.66
2023-03-04T10:20:52.976Z,7.00
2023-03-04T10:23:25.765Z,7.00
2023-03-04T10:25:54.945Z,6.77
2023-03-04T10:28:27.078Z,6.61
2023-03-04T10:31:01.263Z,6.77
2023-03-04T10:33:32.054Z,6.97
2023-03-04T10:36:03.776Z,6.87
2023-03-04T10:38:36.844Z,6.80
2023-03-04T10:41:13.863Z,6.84
2023-03-04T10:43:44.108Z,7.31
2023-03-04T10:46:12.552Z,7.31
2023-03-04T10:48:43.424Z,7.16
2023-03-04T10:51:15.036Z,7.31
2023-03-04T10:53:44.921Z,7.06
2023-03-04T10:56:34.811Z,6.98
2023-03-04T10:59:40.737Z,7.42
2023-03-04T11:02:18.285Z,7.21
2023-03-04T11:04:53.559Z,7.07
2023-03-04T11:07:23.502Z,7.51
2023-03-04T11:09:53.653Z,7.33
2023-03-04T11:12:35.225Z,7.22
2023-03-04T11:15:04.523Z,7.39
2023-03-04T11:17:45.299Z,7.44
2023-03-04T11:20:18.981Z,7.53
2023-03-04T11:22:48.098Z,7.75
2023-03-04T11:25:27.654Z,7.79
2023-03-04T11:27:58.881Z,7.52
2023-03-04T11:30:44.593Z,7.54
2023-03-04T11:33:22.299Z,7.53
2023-03-04T11:36:00.585Z,7.38
2023-03-04T11:38:33.882Z,7.44
2023-03-04T11:41:06.505Z,7.44
2023-03-04T11:43:41.009Z,7.29
2023-03-04T11:46:43.849Z,7.44
2023-03-04T11:49:50.117Z,7.66
2023-03-04T11:52:31.137Z,8.01
2023-03-04T11:55:13.977Z,8.05
2023-03-04T11:57:54.585Z,7.72
2023-03-04T12:00:37.115Z,7.97
2023-03-04T12:03:30.950Z,7.77
2023-03-04T12:06:07.596Z,7.78
2023-03-04T12:08:55.646Z,7.63
2023-03-04T12:11:35.071Z,7.54
2023-03-04T12:14:20.970Z,7.45
2023-03-04T12:17:35.141Z,7.65
2023-03-04T12:20:37.173Z,8.06
2023-03-04T12:23:19.296Z,8.14
2023-03-04T12:25:57.990Z,7.78
2023-03-04T12:28:43.967Z,7.48
2023-03-04T12:31:30.736Z,7.68
2023-03-04T12:34:15.233Z,7.75
2023-03-04T12:36:53.164Z,7.81
2023-03-04T12:39:31.015Z,7.61
2023-03-04T12:42:08.471Z,7.31
2023-03-04T12:44:44.532Z,7.44
2023-03-04T12:47:30.098Z,7.26
2023-03-04T12:50:21.107Z,7.31
2023-03-04T12:53:00.865Z,7.53
2023-03-04T12:55:38.120Z,7.30
2023-03-04T12:58:07.991Z,7.11
2023-03-04T13:00:47.970Z,6.98
2023-03-04T13:03:22.934Z,7.17
2023-03-04T13:06:07.882Z,7.31
2023-03-04T13:08:47.737Z,6.91
2023-03-04T13:11:47.225Z,6.97
2023-03-04T13:14:33.176Z,6.98
2023-03-04T13:17:03.555Z,7.04
2023-03-04T13:19:48.446Z,7.29
2023-03-04T13:22:30.970Z,7.23
2023-03-04T13:25:00.151Z,7.72
2023-03-04T13:27:49.254Z,7.68
2023-03-04T13:30:42.355Z,7.42
2023-03-04T13:33:45.787Z,7.72
2023-03-04T13:37:00.228Z,7.37
2023-03-04T13:39:33.279Z,7.57
2023-03-04T13:42:02.288Z,7.56
2023-03-04T13:45:05.912Z,7.46
2023-03-04T13:47:49.748Z,7.71
2023-03-04T13:50:40.160Z,7.64
2023-03-04T13:53:41.104Z,7.77
2023-03-04T13:56:32.401Z,7.78
2023-03-04T13:59:28.545Z,7.91
2023-03-04T14:02:00.155Z,8.10
2023-03-04T14:04:32.071Z,7.80
2023-03-04T14:07:02.156Z,8.04
2023-03-04T14:09:32.060Z,7.96
2023-03-04T14:12:05.363Z,7.77
2023-03-04T14:14:44.733Z,7.93
2023-03-04T14:17:20.785Z,7.98
2023-03-04T14:19:52.503Z,7.99
2023-03-04T14:22:25.968Z,7.91
2023-03-04T14:24:59.880Z,7.65
2023-03-04T14:27:30.639Z,7.88
2023-03-04T14:29:59.916Z,7.69
2023-03-04T14:32:30.374Z,7.53
2023-03-04T14:35:03.822Z,7.73
2023-03-04T14:37:39.348Z,7.76
2023-03-04T14:40:09.152Z,7.69
2023-03-04T14:42:47.201Z,8.09
2023-03-04T14:45:18.583Z,8.15
2023-03-04T14:47:48.691Z,7.79
2023-03-04T14:50:19.248Z,8.15
2023-03-04T14:52:51.609Z,7.99
2023-03-04T14:55:23.276Z,7.73
2023-03-04T14:57:58.726Z,7.45
2023-03-04T15:00:31.378Z,7.80
2023-03-04T15:03:01.193Z,7.84
2023-03-04T15:05:31.599Z,7.49
2023-03-04T15:08:01.614Z,7.81
2023-03-04T15:10:32.024Z,7.75
2023-03-04T15:13:03.977Z,7.69
2023-03-04T15:15:39.902Z,7.63
2023-03-04T15:18:22.938Z,7.61
2023-03-04T15:20:56.150Z,7.74
2023-03-04T15:23:24.086Z,7.48
2023-03-04T15:25:54.599Z,7.67
2023-03-04T15:28:24.782Z,7.49
2023-03-04T15:30:53.157Z,7.59
2023-03-04T15:33:21.418Z,7.45
2023-03-04T15:35:54.510Z,7.20
2023-03-04T15:38:22.631Z,7.09
2023-03-04T15:40:53.282Z,7.26
2023-03-04T15:43:24.541Z,7.21
2023-03-04T15:45:54.406Z,7.41
2023-03-04T15:48:22.669Z,7.55
2023-03-04T15:50:55.281Z,7.62
2023-03-04T15:53:29.682Z,7.40
2023-03-04T15:55:57.646Z,7.36
2023-03-04T15:58:28.164Z,7.42
2023-03-04T16:00:56.265Z,7.86
2023-03-04T16:03:24.127Z,7.70
2023-03-04T16:05:53.465Z,7.38
2023-03-04T16:08:24.871Z,7.42
2023-03-04T16:10:53.304Z,7.69
2023-03-04T16:13:23.920Z,7.46
2023-03-04T16:15:53.434Z,7.46
2023-03-04T16:18:21.729Z,7.53
2023-03-04T16:20:50.938Z,7.77
2023-03-04T16:23:22.275Z,7.34
2023-03-04T16:25:53.758Z,7.94
2023-03-04T16:28:21.656Z,7.46
2023-03-04T16:30:50.199Z,7.50
2023-03-04T16:33:19.413Z,7.35
2023-03-04T16:35:47.703Z,7.41
2023-03-04T16:38:23.203Z,7.86
2023-03-04T16:40:51.008Z,7.77
2023-03-04T16:43:18.799Z,7.57
2023-03-04T16:45:46.743Z,7.43
2023-03-04T16:48:14.497Z,7.38
2023-03-04T16:50:44.832Z,7.33
2023-03-04T16:53:30.512Z,7.55
2023-03-04T16:55:59.581Z,7.88
2023-03-04T16:58:27.679Z,7.47
2023-03-04T17:00:56.126Z,7.54
2023-03-04T17:03:24.292Z,7.37
2023-03-04T17:05:53.572Z,7.43
2023-03-04T17:08:21.477Z,7.75
2023-03-04T17:10:50.494Z,7.41
2023-03-04T17:13:18.335Z,7.67
2023-03-04T17:15:46.959Z,7.50
2023-03-04T17:18:15.147Z,7.79
2023-03-04T17:20:43.032Z,7.73
2023-03-04T17:23:12.222Z,7.78
2023-03-04T17:25:40.141Z,7.59
2023-03-04T17:28:07.990Z,7.41
2023-03-04T17:30:35.795Z,7.63
2023-03-04T17:33:03.671Z,7.29
2023-03-04T17:35:31.486Z,7.56
2023-03-04T17:37:59.992Z,7.38
2023-03-04T17:40:29.813Z,7.61
2023-03-04T17:42:57.637Z,7.44
2023-03-04T17:45:25.386Z,7.40
2023-03-04T17:47:53.132Z,7.33
2023-03-04T17:50:21.407Z,7.41
2023-03-04T17:52:49.223Z,7.55
2023-03-04T17:55:17.048Z,7.22
2023-03-04T17:57:46.449Z,7.55
2023-03-04T18:00:15.588Z,7.18
2023-03-04T18:02:43.515Z,7.43
2023-03-04T18:05:11.602Z,7.57
2023-03-04T18:07:39.514Z,7.42
2023-03-04T18:10:08.559Z,7.58
2023-03-04T18:12:36.351Z,7.52
2023-03-04T18:15:06.645Z,7.58
2023-03-04T18:17:34.453Z,7.46
2023-03-04T18:20:02.782Z,7.34
2023-03-04T18:22:31.718Z,7.57
2023-03-04T18:24:59.459Z,7.39
2023-03-04T18:27:27.971Z,7.29
2023-03-04T18:29:56.416Z,7.27
2023-03-04T18:32:25.908Z,7.17
2023-03-04T18:34:53.904Z,7.35
2023-03-04T18:37:21.981Z,7.10
2023-03-04T18:39:49.865Z,7.38
2023-03-04T18:42:18.046Z,7.33
2023-03-04T18:44:45.906Z,7.11
2023-03-04T18:47:14.335Z,7.27
2023-03-04T18:49:45.406Z,7.08
2023-03-04T18:52:13.380Z,6.90
2023-03-04T18:54:41.414Z,6.73
2023-03-04T18:57:11.462Z,6.71
2023-03-04T18:59:44.260Z,6.83
2023-03-04T19:02:18.585Z,7.07
2023-03-04T19:04:48.854Z,7.16
2023-03-04T19:07:16.998Z,7.23
2023-03-04T19:09:44.928Z,7.08
2023-03-04T19:12:12.931Z,7.18
2023-03-04T19:14:41.029Z,7.00
2023-03-04T19:17:08.822Z,7.11
2023-03-04T19:19:37.356Z,6.98
2023-03-04T19:22:06.925Z,6.90
2023-03-04T19:24:34.812Z,7.17
2023-03-04T19:27:02.802Z,7.00
2023-03-04T19:29:30.888Z,6.90
2023-03-04T19:31:58.840Z,6.88
2023-03-04T19:34:26.926Z,6.94
2023-03-04T19:36:54.831Z,6.88
2023-03-04T19:39:24.087Z,6.71
2023-03-04T19:41:51.926Z,6.90
2023-03-04T19:44:19.852Z,6.94
2023-03-04T19:46:47.806Z,6.99
2023-03-04T19:49:15.659Z,6.67
2023-03-04T19:51:43.695Z,6.97
2023-03-04T19:54:11.608Z,6.75
2023-03-04T19:56:40.991Z,6.91
2023-03-04T19:59:09.991Z,6.82
2023-03-04T20:01:38.640Z,6.85
2023-03-04T20:04:09.384Z,6.84
2023-03-04T20:06:38.446Z,6.76
2023-03-04T20:09:07.160Z,6.85
2023-03-04T20:11:41.498Z,6.74
2023-03-04T20:14:20.093Z,6.97
2023-03-04T20:16:48.087Z,6.77
2023-03-04T20:19:16.071Z,6.82
2023-03-04T20:21:43.861Z,6.83
2023-03-04T20:24:11.867Z,6.77
2023-03-04T20:26:40.050Z,6.60
2023-03-04T20:29:07.812Z,6.77
2023-03-04T20:31:38.845Z,6.87
2023-03-04T20:34:08.439Z,6.63
2023-03-04T20:36:38.526Z,6.54
2023-03-04T20:39:18.319Z,6.62
2023-03-04T20:41:55.301Z,6.82
2023-03-04T20:44:23.232Z,6.64
2023-03-04T20:46:53.550Z,6.63
2023-03-04T20:49:24.106Z,6.63
2023-03-04T20:51:53.177Z,6.57
2023-03-04T20:54:21.360Z,6.54
2023-03-04T20:56:49.589Z,6.67
2023-03-04T20:59:18.200Z,6.61
2023-03-04T21:01:47.894Z,6.66
2023-03-04T21:04:17.798Z,6.43
2023-03-04T21:06:47.444Z,6.24
2023-03-04T21:09:18.245Z,6.12
2023-03-04T21:11:46.391Z,6.26
2023-03-04T21:14:16.620Z,6.72
2023-03-04T21:16:44.653Z,6.58
2023-03-04T21:19:18.329Z,6.41
2023-03-04T21:21:47.422Z,6.18
2023-03-04T21:24:16.717Z,6.14
2023-03-04T21:26:47.386Z,6.42
2023-03-04T21:29:16.172Z,6.28
2023-03-04T21:31:46.696Z,6.24
2023-03-04T21:34:19.967Z,6.55
2023-03-04T21:36:47.969Z,6.39
2023-03-04T21:39:17.846Z,6.69
2023-03-04T21:41:46.298Z,6.52
2023-03-04T21:44:22.986Z,6.05
2023-03-04T21:46:57.037Z,6.02
2023-03-04T21:49:27.127Z,6.21
2023-03-04T21:51:55.274Z,6.15
2023-03-04T21:54:23.267Z,6.45
2023-03-04T21:56:51.211Z,6.13
2023-03-04T21:59:19.399Z,6.07
2023-03-04T22:01:47.298Z,6.24
2023-03-04T22:04:15.343Z,6.12
2023-03-04T22:06:44.509Z,5.83
2023-03-04T22:09:13.296Z,5.91
2023-03-04T22:11:41.402Z,5.90
2023-03-04T22:14:09.280Z,5.89
2023-03-04T22:16:48.798Z,5.99
2023-03-04T22:19:22.313Z,6.03
2023-03-04T22:21:52.373Z,6.24
2023-03-04T22:24:20.950Z,6.47
2023-03-04T22:26:48.854Z,6.05
2023-03-04T22:29:16.744Z,6.23
2023-03-04T22:31:44.738Z,5.75
2023-03-04T22:34:14.881Z,5.65
2023-03-04T22:36:44.678Z,5.74
2023-03-04T22:39:16.289Z,5.64
2023-03-04T22:41:44.408Z,5.68
2023-03-04T22:44:14.130Z,6.19
2023-03-04T22:46:42.596Z,5.83
2023-03-04T22:49:12.928Z,6.01
2023-03-04T22:51:42.398Z,6.07
2023-03-04T22:54:13.974Z,5.81
2023-03-04T22:56:41.907Z,5.92
2023-03-04T22:59:09.789Z,5.70
2023-03-04T23:01:37.763Z,5.85
2023-03-04T23:04:06.039Z,5.90
2023-03-04T23:06:33.819Z,5.78
2023-03-04T23:09:01.943Z,5.95
2023-03-04T23:11:35.177Z,5.85
2023-03-04T23:14:06.820Z,5.57
2023-03-04T23:16:37.442Z,5.40
2023-03-04T23:19:05.860Z,5.99
2023-03-04T23:21:34.667Z,5.51
2023-03-04T23:24:03.812Z,5.59
2023-03-04T23:26:35.971Z,5.62
2023-03-04T23:29:06.091Z,5.87
2023-03-04T23:31:35.730Z,5.67
2023-03-04T23:34:05.293Z,5.49
2023-03-04T23:36:34.932Z,5.62
2023-03-04T23:39:04.291Z,5.49
2023-03-04T23:41:34.565Z,5.88
2023-03-04T23:44:03.116Z,5.43
2023-03-04T23:46:31.220Z,5.54
2023-03-04T23:48:59.414Z,5.48
2023-03-04T23:51:30.017Z,5.43
2023-03-04T23:53:58.183Z,5.74
2023-03-04T23:56:28.707Z,5.32
2023-03-04T23:58:59.304Z,5.50
